sensor_id;sensor_type;location;lat;lon;timestamp;pressure;altitude;pressure_sealevel;temperature;humidity
72950;BME280;64868;45.710;9.590;2023-04-16T00:00:05;98399.84;;;9.42;70.57
72950;BME280;64868;45.710;9.590;2023-04-16T00:02:38;98407.28;;;9.51;70.02
72950;BME280;64868;45.710;9.590;2023-04-16T00:05:08;98414.72;;;9.60;69.07
72950;BME280;64868;45.710;9.590;2023-04-16T00:07:38;98400.84;;;9.52;69.77
72950;BME280;64868;45.710;9.590;2023-04-16T00:10:10;98404.56;;;9.51;69.76
72950;BME280;64868;45.710;9.590;2023-04-16T00:12:41;98361.97;;;9.27;69.58
72950;BME280;64868;45.710;9.590;2023-04-16T00:15:13;98403.31;;;9.44;69.54
72950;BME280;64868;45.710;9.590;2023-04-16T00:17:44;98406.38;;;9.28;70.75
72950;BME280;64868;45.710;9.590;2023-04-16T00:20:16;98419.25;;;9.37;69.90
72950;BME280;64868;45.710;9.590;2023-04-16T00:22:46;98392.06;;;9.02;70.95
72950;BME280;64868;45.710;9.590;2023-04-16T00:25:19;98387.94;;;8.96;71.66
72950;BME280;64868;45.710;9.590;2023-04-16T00:27:52;98407.84;;;8.97;71.41
72950;BME280;64868;45.710;9.590;2023-04-16T00:30:22;98408.19;;;8.92;71.96
72950;BME280;64868;45.710;9.590;2023-04-16T00:32:52;98420.69;;;8.95;71.52
72950;BME280;64868;45.710;9.590;2023-04-16T00:35:22;98380.34;;;8.53;72.15
72950;BME280;64868;45.710;9.590;2023-04-16T00:37:52;98410.19;;;8.90;71.75
72950;BME280;64868;45.710;9.590;2023-04-16T00:40:23;98406.47;;;8.67;72.03
72950;BME280;64868;45.710;9.590;2023-04-16T00:42:53;98397.50;;;8.54;72.19
72950;BME280;64868;45.710;9.590;2023-04-16T00:45:25;98400.66;;;8.48;72.76
72950;BME280;64868;45.710;9.590;2023-04-16T00:47:56;98399.16;;;8.44;73.22
72950;BME280;64868;45.710;9.590;2023-04-16T00:50:27;98402.00;;;8.42;72.32
72950;BME280;64868;45.710;9.590;2023-04-16T00:53:00;98408.81;;;8.48;72.62
72950;BME280;64868;45.710;9.590;2023-04-16T00:55:32;98400.63;;;8.61;71.35
72950;BME280;64868;45.710;9.590;2023-04-16T00:58:05;98399.78;;;8.60;71.63
72950;BME280;64868;45.710;9.590;2023-04-16T01:00:33;98402.50;;;8.60;72.01
72950;BME280;64868;45.710;9.590;2023-04-16T01:03:06;98419.31;;;8.65;71.60
72950;BME280;64868;45.710;9.590;2023-04-16T01:05:36;98411.38;;;8.62;71.29
72950;BME280;64868;45.710;9.590;2023-04-16T01:08:16;98399.22;;;8.55;71.11
72950;BME280;64868;45.710;9.590;2023-04-16T01:10:44;98401.66;;;8.47;71.05
72950;BME280;64868;45.710;9.590;2023-04-16T01:13:12;98423.25;;;8.61;71.72
72950;BME280;64868;45.710;9.590;2023-04-16T01:15:45;98393.38;;;8.48;71.41
72950;BME280;64868;45.710;9.590;2023-04-16T01:18:19;98421.50;;;8.60;70.83
72950;BME280;64868;45.710;9.590;2023-04-16T01:20:50;98397.94;;;8.48;70.22
72950;BME280;64868;45.710;9.590;2023-04-16T01:23:22;98407.16;;;8.58;70.65
72950;BME280;64868;45.710;9.590;2023-04-16T01:25:54;98405.31;;;8.59;70.10
72950;BME280;64868;45.710;9.590;2023-04-16T01:28:23;98391.84;;;8.57;70.10
72950;BME280;64868;45.710;9.590;2023-04-16T01:30:56;98382.78;;;8.45;70.42
72950;BME280;64868;45.710;9.590;2023-04-16T01:33:28;98393.22;;;8.39;69.86
72950;BME280;64868;45.710;9.590;2023-04-16T01:35:59;98387.97;;;8.36;71.04
72950;BME280;64868;45.710;9.590;2023-04-16T01:38:31;98412.19;;;8.51;70.44
72950;BME280;64868;45.710;9.590;2023-04-16T01:40:59;98401.88;;;8.44;69.09
72950;BME280;64868;45.710;9.590;2023-04-16T01:43:31;98392.88;;;8.31;70.29
72950;BME280;64868;45.710;9.590;2023-04-16T01:46:22;98387.22;;;8.34;69.27
72950;BME280;64868;45.710;9.590;2023-04-16T01:48:55;98408.41;;;8.28;70.31
72950;BME280;64868;45.710;9.590;2023-04-16T01:51:28;98390.75;;;8.10;70.85
72950;BME280;64868;45.710;9.590;2023-04-16T01:54:01;98398.03;;;8.10;70.72
72950;BME280;64868;45.710;9.590;2023-04-16T01:56:33;98410.81;;;8.20;70.87
72950;BME280;64868;45.710;9.590;2023-04-16T01:59:01;98394.78;;;8.04;70.33
72950;BME280;64868;45.710;9.590;2023-04-16T02:01:31;98386.66;;;8.04;69.26
72950;BME280;64868;45.710;9.590;2023-04-16T02:04:04;98403.94;;;8.03;69.58
72950;BME280;64868;45.710;9.590;2023-04-16T02:06:34;98409.00;;;8.08;70.21
72950;BME280;64868;45.710;9.590;2023-04-16T02:09:02;98381.34;;;7.90;69.68
72950;BME280;64868;45.710;9.590;2023-04-16T02:11:32;98407.72;;;8.01;71.06
72950;BME280;64868;45.710;9.590;2023-04-16T02:14:05;98412.59;;;8.09;69.29
72950;BME280;64868;45.710;9.590;2023-04-16T02:16:35;98404.22;;;7.99;70.29
72950;BME280;64868;45.710;9.590;2023-04-16T02:19:07;98405.56;;;7.93;70.55
72950;BME280;64868;45.710;9.590;2023-04-16T02:21:38;98402.41;;;7.87;71.00
72950;BME280;64868;45.710;9.590;2023-04-16T02:24:10;98380.53;;;7.77;70.80
72950;BME280;64868;45.710;9.590;2023-04-16T02:26:41;98384.31;;;7.74;71.09
72950;BME280;64868;45.710;9.590;2023-04-16T02:29:13;98404.59;;;7.82;70.08
72950;BME280;64868;45.710;9.590;2023-04-16T02:31:46;98399.81;;;7.72;70.54
72950;BME280;64868;45.710;9.590;2023-04-16T02:34:18;98375.63;;;7.56;70.82
72950;BME280;64868;45.710;9.590;2023-04-16T02:36:51;98392.34;;;7.89;69.13
72950;BME280;64868;45.710;9.590;2023-04-16T02:39:24;98404.03;;;7.76;70.75
72950;BME280;64868;45.710;9.590;2023-04-16T02:41:56;98396.78;;;7.64;69.65
72950;BME280;64868;45.710;9.590;2023-04-16T02:44:29;98397.56;;;7.66;69.12
72950;BME280;64868;45.710;9.590;2023-04-16T02:47:00;98375.84;;;7.53;70.81
72950;BME280;64868;45.710;9.590;2023-04-16T02:49:32;98407.94;;;7.72;68.87
72950;BME280;64868;45.710;9.590;2023-04-16T02:52:05;98407.84;;;7.61;69.39
72950;BME280;64868;45.710;9.590;2023-04-16T02:54:38;98370.63;;;7.38;69.78
72950;BME280;64868;45.710;9.590;2023-04-16T02:57:08;98388.88;;;7.48;68.77
72950;BME280;64868;45.710;9.590;2023-04-16T02:59:40;98406.00;;;7.49;70.63
72950;BME280;64868;45.710;9.590;2023-04-16T03:02:13;98395.16;;;7.36;69.76
72950;BME280;64868;45.710;9.590;2023-04-16T03:04:46;98408.19;;;7.44;69.18
72950;BME280;64868;45.710;9.590;2023-04-16T03:07:18;98401.44;;;7.37;68.81
72950;BME280;64868;45.710;9.590;2023-04-16T03:09:51;98399.59;;;7.24;70.19
72950;BME280;64868;45.710;9.590;2023-04-16T03:12:21;98410.56;;;7.36;68.88
72950;BME280;64868;45.710;9.590;2023-04-16T03:14:51;98409.66;;;7.22;69.13
72950;BME280;64868;45.710;9.590;2023-04-16T03:17:24;98411.25;;;7.12;68.36
72950;BME280;64868;45.710;9.590;2023-04-16T03:19:52;98418.13;;;7.18;68.55
72950;BME280;64868;45.710;9.590;2023-04-16T03:22:22;98427.25;;;7.29;68.06
72950;BME280;64868;45.710;9.590;2023-04-16T03:24:52;98424.25;;;7.47;67.51
72950;BME280;64868;45.710;9.590;2023-04-16T03:27:24;98415.41;;;7.18;68.24
72950;BME280;64868;45.710;9.590;2023-04-16T03:29:57;98420.31;;;7.25;67.52
72950;BME280;64868;45.710;9.590;2023-04-16T03:32:27;98440.59;;;7.32;66.67
72950;BME280;64868;45.710;9.590;2023-04-16T03:35:00;98405.22;;;7.09;66.06
72950;BME280;64868;45.710;9.590;2023-04-16T03:37:32;98414.41;;;7.06;67.93
72950;BME280;64868;45.710;9.590;2023-04-16T03:40:02;98438.16;;;7.15;67.93
72950;BME280;64868;45.710;9.590;2023-04-16T03:42:35;98415.03;;;6.97;67.64
72950;BME280;64868;45.710;9.590;2023-04-16T03:45:05;98436.50;;;7.00;66.97
72950;BME280;64868;45.710;9.590;2023-04-16T03:47:38;98443.44;;;7.04;66.24
72950;BME280;64868;45.710;9.590;2023-04-16T03:50:11;98444.69;;;6.86;67.77
72950;BME280;64868;45.710;9.590;2023-04-16T03:52:41;98422.31;;;6.69;68.43
72950;BME280;64868;45.710;9.590;2023-04-16T03:55:11;98452.94;;;6.84;67.51
72950;BME280;64868;45.710;9.590;2023-04-16T03:57:44;98451.88;;;6.87;67.54
72950;BME280;64868;45.710;9.590;2023-04-16T04:00:14;98455.66;;;6.84;67.18
72950;BME280;64868;45.710;9.590;2023-04-16T04:02:47;98444.47;;;6.76;68.26
72950;BME280;64868;45.710;9.590;2023-04-16T04:05:19;98444.63;;;6.60;68.73
72950;BME280;64868;45.710;9.590;2023-04-16T04:07:52;98449.69;;;6.79;68.69
72950;BME280;64868;45.710;9.590;2023-04-16T04:10:25;98411.84;;;6.50;67.63
72950;BME280;64868;45.710;9.590;2023-04-16T04:12:57;98421.50;;;6.54;68.30
72950;BME280;64868;45.710;9.590;2023-04-16T04:15:27;98429.78;;;6.66;66.59
72950;BME280;64868;45.710;9.590;2023-04-16T04:17:58;98447.31;;;6.60;68.22
72950;BME280;64868;45.710;9.590;2023-04-16T04:20:28;98449.84;;;6.63;68.93
72950;BME280;64868;45.710;9.590;2023-04-16T04:23:00;98450.28;;;6.70;67.85
72950;BME280;64868;45.710;9.590;2023-04-16T04:25:28;98449.72;;;6.65;68.19
72950;BME280;64868;45.710;9.590;2023-04-16T04:27:58;98447.47;;;6.71;67.19
72950;BME280;64868;45.710;9.590;2023-04-16T04:30:28;98456.13;;;6.64;67.03
72950;BME280;64868;45.710;9.590;2023-04-16T04:32:58;98439.19;;;6.60;66.86
72950;BME280;64868;45.710;9.590;2023-04-16T04:35:31;98448.00;;;6.64;67.36
72950;BME280;64868;45.710;9.590;2023-04-16T04:38:01;98469.34;;;6.68;68.22
72950;BME280;64868;45.710;9.590;2023-04-16T04:40:29;98478.22;;;6.70;67.45
72950;BME280;64868;45.710;9.590;2023-04-16T04:43:02;98459.69;;;6.64;68.23
72950;BME280;64868;45.710;9.590;2023-04-16T04:45:34;98454.00;;;6.54;67.45
72950;BME280;64868;45.710;9.590;2023-04-16T04:48:07;98460.56;;;6.65;66.68
72950;BME280;64868;45.710;9.590;2023-04-16T04:50:37;98484.03;;;6.78;66.49
72950;BME280;64868;45.710;9.590;2023-04-16T04:53:07;98488.28;;;6.82;66.71
72950;BME280;64868;45.710;9.590;2023-04-16T04:55:43;98473.94;;;6.80;66.12
72950;BME280;64868;45.710;9.590;2023-04-16T04:58:16;98486.13;;;6.88;64.66
72950;BME280;64868;45.710;9.590;2023-04-16T05:00:44;98497.41;;;6.94;64.44
72950;BME280;64868;45.710;9.590;2023-04-16T05:03:17;98484.97;;;7.04;64.22
72950;BME280;64868;45.710;9.590;2023-04-16T05:05:50;98478.47;;;7.07;63.36
72950;BME280;64868;45.710;9.590;2023-04-16T05:08:18;98489.88;;;7.12;64.94
72950;BME280;64868;45.710;9.590;2023-04-16T05:10:50;98506.94;;;7.27;64.40
72950;BME280;64868;45.710;9.590;2023-04-16T05:13:22;98501.25;;;7.31;63.63
72950;BME280;64868;45.710;9.590;2023-04-16T05:15:53;98502.31;;;7.42;63.75
72950;BME280;64868;45.710;9.590;2023-04-16T05:18:23;98479.88;;;7.40;64.32
72950;BME280;64868;45.710;9.590;2023-04-16T05:20:53;98507.13;;;7.51;63.58
72950;BME280;64868;45.710;9.590;2023-04-16T05:23:26;98487.72;;;7.57;63.25
72950;BME280;64868;45.710;9.590;2023-04-16T05:25:58;98490.75;;;7.52;61.99
72950;BME280;64868;45.710;9.590;2023-04-16T05:28:28;98511.06;;;7.72;62.95
72950;BME280;64868;45.710;9.590;2023-04-16T05:30:59;98506.72;;;7.83;62.66
72950;BME280;64868;45.710;9.590;2023-04-16T05:33:27;98515.13;;;7.92;61.13
72950;BME280;64868;45.710;9.590;2023-04-16T05:35:59;98490.66;;;7.79;61.23
72950;BME280;64868;45.710;9.590;2023-04-16T05:38:32;98518.47;;;7.96;60.59
72950;BME280;64868;45.710;9.590;2023-04-16T05:40:59;98506.53;;;7.86;61.00
72950;BME280;64868;45.710;9.590;2023-04-16T05:43:32;98492.41;;;7.93;60.36
72950;BME280;64868;45.710;9.590;2023-04-16T05:46:03;98505.66;;;8.11;59.46
72950;BME280;64868;45.710;9.590;2023-04-16T05:48:33;98514.38;;;8.41;58.16
72950;BME280;64868;45.710;9.590;2023-04-16T05:51:01;98513.13;;;8.33;60.02
72950;BME280;64868;45.710;9.590;2023-04-16T05:53:33;98529.13;;;8.50;58.25
72950;BME280;64868;45.710;9.590;2023-04-16T05:56:06;98525.97;;;8.43;59.11
72950;BME280;64868;45.710;9.590;2023-04-16T05:58:38;98487.50;;;8.24;59.13
72950;BME280;64868;45.710;9.590;2023-04-16T06:01:11;98530.28;;;8.59;58.03
72950;BME280;64868;45.710;9.590;2023-04-16T06:03:41;98512.59;;;8.53;58.08
72950;BME280;64868;45.710;9.590;2023-04-16T06:06:13;98504.16;;;8.45;58.18
72950;BME280;64868;45.710;9.590;2023-04-16T06:08:44;98543.41;;;8.77;57.20
72950;BME280;64868;45.710;9.590;2023-04-16T06:11:12;98547.91;;;9.02;56.38
72950;BME280;64868;45.710;9.590;2023-04-16T06:13:42;98539.09;;;8.99;57.53
72950;BME280;64868;45.710;9.590;2023-04-16T06:16:12;98521.81;;;9.00;56.39
72950;BME280;64868;45.710;9.590;2023-04-16T06:18:40;98559.13;;;9.46;56.15
72950;BME280;64868;45.710;9.590;2023-04-16T06:21:12;98534.94;;;9.54;55.24
72950;BME280;64868;45.710;9.590;2023-04-16T06:23:45;98556.06;;;9.74;55.14
72950;BME280;64868;45.710;9.590;2023-04-16T06:26:15;98552.81;;;11.17;51.66
72950;BME280;64868;45.710;9.590;2023-04-16T06:28:45;98561.53;;;19.15;33.11
72950;BME280;64868;45.710;9.590;2023-04-16T06:31:15;98568.22;;;23.50;26.10
72950;BME280;64868;45.710;9.590;2023-04-16T06:33:45;98569.59;;;25.61;22.05
72950;BME280;64868;45.710;9.590;2023-04-16T06:36:18;98563.78;;;26.84;20.51
72950;BME280;64868;45.710;9.590;2023-04-16T06:38:46;98563.69;;;27.41;19.54
72950;BME280;64868;45.710;9.590;2023-04-16T06:41:19;98560.81;;;28.51;18.39
72950;BME280;64868;45.710;9.590;2023-04-16T06:43:51;98563.78;;;29.45;16.94
72950;BME280;64868;45.710;9.590;2023-04-16T06:46:21;98568.81;;;28.78;17.58
72950;BME280;64868;45.710;9.590;2023-04-16T06:48:51;98578.66;;;29.11;16.93
72950;BME280;64868;45.710;9.590;2023-04-16T06:51:21;98568.72;;;30.42;16.58
72950;BME280;64868;45.710;9.590;2023-04-16T06:53:52;98558.28;;;31.34;15.42
72950;BME280;64868;45.710;9.590;2023-04-16T06:56:24;98556.53;;;32.10;14.77
72950;BME280;64868;45.710;9.590;2023-04-16T06:58:57;98574.06;;;31.73;15.19
72950;BME280;64868;45.710;9.590;2023-04-16T07:01:27;98560.16;;;30.66;15.67
72950;BME280;64868;45.710;9.590;2023-04-16T07:04:00;98561.16;;;31.05;14.93
72950;BME280;64868;45.710;9.590;2023-04-16T07:06:32;98571.03;;;31.58;14.80
72950;BME280;64868;45.710;9.590;2023-04-16T07:09:05;98560.88;;;32.40;14.09
72950;BME280;64868;45.710;9.590;2023-04-16T07:11:35;98582.56;;;33.21;13.35
72950;BME280;64868;45.710;9.590;2023-04-16T07:14:08;98582.69;;;33.68;13.11
72950;BME280;64868;45.710;9.590;2023-04-16T07:16:38;98584.94;;;33.02;13.74
72950;BME280;64868;45.710;9.590;2023-04-16T07:19:08;98571.69;;;33.39;13.45
72950;BME280;64868;45.710;9.590;2023-04-16T07:21:38;98576.81;;;33.10;13.28
72950;BME280;64868;45.710;9.590;2023-04-16T07:24:11;98595.94;;;34.98;11.93
72950;BME280;64868;45.710;9.590;2023-04-16T07:26:43;98591.59;;;37.22;10.94
72950;BME280;64868;45.710;9.590;2023-04-16T07:29:11;98597.25;;;37.62;10.88
72950;BME280;64868;45.710;9.590;2023-04-16T07:31:41;98584.63;;;37.44;10.85
72950;BME280;64868;45.710;9.590;2023-04-16T07:34:09;98590.28;;;38.93;9.76
72950;BME280;64868;45.710;9.590;2023-04-16T07:36:41;98601.31;;;39.51;9.87
72950;BME280;64868;45.710;9.590;2023-04-16T07:39:09;98590.38;;;39.26;9.46
72950;BME280;64868;45.710;9.590;2023-04-16T07:41:42;98579.50;;;35.82;12.38
72950;BME280;64868;45.710;9.590;2023-04-16T07:44:14;98588.59;;;38.49;10.23
72950;BME280;64868;45.710;9.590;2023-04-16T07:46:47;98576.13;;;39.39;9.70
72950;BME280;64868;45.710;9.590;2023-04-16T07:49:19;98605.16;;;39.79;9.99
72950;BME280;64868;45.710;9.590;2023-04-16T07:51:52;98559.41;;;40.26;9.38
72950;BME280;64868;45.710;9.590;2023-04-16T07:54:20;98604.09;;;41.58;8.64
72950;BME280;64868;45.710;9.590;2023-04-16T07:56:53;98613.19;;;41.15;9.11
72950;BME280;64868;45.710;9.590;2023-04-16T07:59:24;98611.75;;;42.73;8.14
72950;BME280;64868;45.710;9.590;2023-04-16T08:01:56;98617.09;;;43.23;7.81
72950;BME280;64868;45.710;9.590;2023-04-16T08:04:29;98612.13;;;41.78;8.30
72950;BME280;64868;45.710;9.590;2023-04-16T08:06:59;98607.28;;;37.83;10.74
72950;BME280;64868;45.710;9.590;2023-04-16T08:09:32;98597.63;;;40.16;9.28
72950;BME280;64868;45.710;9.590;2023-04-16T08:12:04;98609.59;;;41.32;8.66
72950;BME280;64868;45.710;9.590;2023-04-16T08:14:37;98619.50;;;41.26;8.83
72950;BME280;64868;45.710;9.590;2023-04-16T08:17:07;98611.97;;;42.86;8.01
72950;BME280;64868;45.710;9.590;2023-04-16T08:19:40;98573.28;;;37.68;10.58
72950;BME280;64868;45.710;9.590;2023-04-16T08:22:12;98609.56;;;39.72;10.08
72950;BME280;64868;45.710;9.590;2023-04-16T08:24:43;98623.41;;;40.25;9.37
72950;BME280;64868;45.710;9.590;2023-04-16T08:27:13;98619.84;;;39.54;9.54
72950;BME280;64868;45.710;9.590;2023-04-16T08:29:40;98611.81;;;39.75;9.24
72950;BME280;64868;45.710;9.590;2023-04-16T08:32:08;98612.91;;;41.25;8.68
72950;BME280;64868;45.710;9.590;2023-04-16T08:34:39;98626.00;;;43.74;6.90
72950;BME280;64868;45.710;9.590;2023-04-16T08:37:13;98621.00;;;41.68;8.32
72950;BME280;64868;45.710;9.590;2023-04-16T08:39:43;98618.00;;;40.65;9.07
72950;BME280;64868;45.710;9.590;2023-04-16T08:42:33;98610.19;;;40.70;9.41
72950;BME280;64868;45.710;9.590;2023-04-16T08:45:15;98604.03;;;36.33;11.64
72950;BME280;64868;45.710;9.590;2023-04-16T08:47:50;98609.72;;;38.67;10.43
72950;BME280;64868;45.710;9.590;2023-04-16T08:50:24;98614.00;;;38.21;10.67
72950;BME280;64868;45.710;9.590;2023-04-16T08:53:04;98633.78;;;41.03;8.95
72950;BME280;64868;45.710;9.590;2023-04-16T08:55:39;98617.66;;;39.64;10.35
72950;BME280;64868;45.710;9.590;2023-04-16T08:58:21;98627.41;;;37.63;11.10
72950;BME280;64868;45.710;9.590;2023-04-16T09:00:53;98608.69;;;32.52;14.72
72950;BME280;64868;45.710;9.590;2023-04-16T09:03:24;98603.72;;;23.48;24.42
72950;BME280;64868;45.710;9.590;2023-04-16T09:05:58;98590.00;;;20.71;29.53
72950;BME280;64868;45.710;9.590;2023-04-16T09:08:32;98593.53;;;19.09;33.87
72950;BME280;64868;45.710;9.590;2023-04-16T09:11:06;98579.22;;;18.65;35.60
72950;BME280;64868;45.710;9.590;2023-04-16T09:13:36;98612.13;;;17.93;36.91
72950;BME280;64868;45.710;9.590;2023-04-16T09:16:05;98606.22;;;17.80;37.57
72950;BME280;64868;45.710;9.590;2023-04-16T09:18:35;98606.09;;;18.06;36.90
72950;BME280;64868;45.710;9.590;2023-04-16T09:21:01;98610.19;;;17.77;37.74
72950;BME280;64868;45.710;9.590;2023-04-16T09:23:31;98593.88;;;18.08;36.55
72950;BME280;64868;45.710;9.590;2023-04-16T09:26:05;98597.78;;;17.81;36.89
72950;BME280;64868;45.710;9.590;2023-04-16T09:28:47;98616.38;;;17.37;37.34
72950;BME280;64868;45.710;9.590;2023-04-16T09:31:20;98608.41;;;17.68;37.50
72950;BME280;64868;45.710;9.590;2023-04-16T09:34:05;98596.56;;;17.84;35.92
72950;BME280;64868;45.710;9.590;2023-04-16T09:36:38;98618.06;;;18.55;34.87
72950;BME280;64868;45.710;9.590;2023-04-16T09:39:19;98604.94;;;18.41;34.73
72950;BME280;64868;45.710;9.590;2023-04-16T09:41:54;98617.91;;;17.73;35.62
72950;BME280;64868;45.710;9.590;2023-04-16T09:44:23;98620.22;;;17.52;36.35
72950;BME280;64868;45.710;9.590;2023-04-16T09:47:07;98595.91;;;17.82;36.01
72950;BME280;64868;45.710;9.590;2023-04-16T09:49:43;98570.78;;;18.17;35.85
72950;BME280;64868;45.710;9.590;2023-04-16T09:52:14;98614.91;;;17.59;35.90
72950;BME280;64868;45.710;9.590;2023-04-16T09:54:51;98611.44;;;17.99;35.60
72950;BME280;64868;45.710;9.590;2023-04-16T09:57:25;98601.50;;;17.72;35.06
72950;BME280;64868;45.710;9.590;2023-04-16T10:00:03;98595.44;;;18.11;35.87
72950;BME280;64868;45.710;9.590;2023-04-16T10:02:38;98613.94;;;19.39;33.11
72950;BME280;64868;45.710;9.590;2023-04-16T10:05:12;98579.72;;;17.95;34.56
72950;BME280;64868;45.710;9.590;2023-04-16T10:07:43;98614.06;;;18.09;34.50
72950;BME280;64868;45.710;9.590;2023-04-16T10:10:13;98565.44;;;18.16;35.08
72950;BME280;64868;45.710;9.590;2023-04-16T10:12:43;98530.94;;;18.12;35.70
72950;BME280;64868;45.710;9.590;2023-04-16T10:15:11;98562.16;;;18.53;35.20
72950;BME280;64868;45.710;9.590;2023-04-16T10:17:44;98542.09;;;18.92;35.23
72950;BME280;64868;45.710;9.590;2023-04-16T10:20:14;98536.81;;;18.50;35.53
72950;BME280;64868;45.710;9.590;2023-04-16T10:22:45;98539.72;;;18.81;35.28
72950;BME280;64868;45.710;9.590;2023-04-16T10:25:18;98577.69;;;18.87;34.11
72950;BME280;64868;45.710;9.590;2023-04-16T10:27:48;98534.81;;;17.68;34.95
72950;BME280;64868;45.710;9.590;2023-04-16T10:30:20;98605.44;;;18.20;36.31
72950;BME280;64868;45.710;9.590;2023-04-16T10:32:51;98611.09;;;18.10;36.94
72950;BME280;64868;45.710;9.590;2023-04-16T10:35:26;98598.38;;;18.91;36.80
72950;BME280;64868;45.710;9.590;2023-04-16T10:38:20;98589.19;;;19.93;34.54
72950;BME280;64868;45.710;9.590;2023-04-16T10:40:52;98602.53;;;19.90;33.60
72950;BME280;64868;45.710;9.590;2023-04-16T10:43:24;98588.22;;;19.39;34.93
72950;BME280;64868;45.710;9.590;2023-04-16T10:46:00;98579.63;;;20.27;33.55
72950;BME280;64868;45.710;9.590;2023-04-16T10:48:47;98588.38;;;20.62;33.28
72950;BME280;64868;45.710;9.590;2023-04-16T10:51:25;98600.94;;;20.41;33.02
72950;BME280;64868;45.710;9.590;2023-04-16T10:53:56;98597.47;;;20.25;31.49
72950;BME280;64868;45.710;9.590;2023-04-16T10:56:26;98577.38;;;19.29;32.92
72950;BME280;64868;45.710;9.590;2023-04-16T10:58:59;98598.38;;;20.17;32.82
72950;BME280;64868;45.710;9.590;2023-04-16T11:01:35;98564.34;;;19.85;32.59
72950;BME280;64868;45.710;9.590;2023-04-16T11:04:27;98598.00;;;19.97;33.26
72950;BME280;64868;45.710;9.590;2023-04-16T11:10:02;98582.94;;;19.68;34.07
72950;BME280;64868;45.710;9.590;2023-04-16T11:12:47;98587.47;;;19.92;33.14
72950;BME280;64868;45.710;9.590;2023-04-16T11:15:19;98572.59;;;19.93;33.35
72950;BME280;64868;45.710;9.590;2023-04-16T11:17:49;98585.47;;;20.09;33.76
72950;BME280;64868;45.710;9.590;2023-04-16T11:20:21;98581.22;;;19.67;33.62
72950;BME280;64868;45.710;9.590;2023-04-16T11:22:52;98559.41;;;20.27;33.14
72950;BME280;64868;45.710;9.590;2023-04-16T11:25:26;98567.13;;;20.31;31.71
72950;BME280;64868;45.710;9.590;2023-04-16T11:27:56;98504.91;;;19.81;31.60
72950;BME280;64868;45.710;9.590;2023-04-16T11:30:32;98575.13;;;19.33;32.95
72950;BME280;64868;45.710;9.590;2023-04-16T11:33:03;98540.47;;;19.53;33.54
72950;BME280;64868;45.710;9.590;2023-04-16T11:35:35;98515.97;;;19.81;32.23
72950;BME280;64868;45.710;9.590;2023-04-16T11:38:03;98570.25;;;20.74;31.67
72950;BME280;64868;45.710;9.590;2023-04-16T11:40:33;98576.31;;;20.55;32.10
72950;BME280;64868;45.710;9.590;2023-04-16T11:43:18;98555.66;;;20.80;31.30
72950;BME280;64868;45.710;9.590;2023-04-16T11:46:03;98510.41;;;20.50;30.85
72950;BME280;64868;45.710;9.590;2023-04-16T11:48:49;98565.47;;;20.22;30.66
72950;BME280;64868;45.710;9.590;2023-04-16T11:51:22;98568.84;;;20.32;30.50
72950;BME280;64868;45.710;9.590;2023-04-16T11:53:55;98535.34;;;19.81;30.40
72950;BME280;64868;45.710;9.590;2023-04-16T11:56:29;98550.69;;;19.84;33.32
72950;BME280;64868;45.710;9.590;2023-04-16T12:01:42;98509.16;;;20.53;31.52
72950;BME280;64868;45.710;9.590;2023-04-16T12:04:12;98542.44;;;19.76;34.91
72950;BME280;64868;45.710;9.590;2023-04-16T12:07:05;98530.84;;;20.64;34.17
72950;BME280;64868;45.710;9.590;2023-04-16T12:09:38;98545.78;;;21.67;31.53
72950;BME280;64868;45.710;9.590;2023-04-16T12:12:29;98540.50;;;20.07;32.99
72950;BME280;64868;45.710;9.590;2023-04-16T12:14:59;98510.47;;;20.19;34.04
72950;BME280;64868;45.710;9.590;2023-04-16T12:17:35;98533.72;;;19.87;33.47
72950;BME280;64868;45.710;9.590;2023-04-16T12:20:11;98461.31;;;20.21;32.01
72950;BME280;64868;45.710;9.590;2023-04-16T12:22:49;98485.69;;;20.03;31.27
72950;BME280;64868;45.710;9.590;2023-04-16T12:25:21;98479.44;;;19.63;31.92
72950;BME280;64868;45.710;9.590;2023-04-16T12:27:56;98510.63;;;20.40;31.13
72950;BME280;64868;45.710;9.590;2023-04-16T12:30:27;98523.06;;;20.97;30.20
72950;BME280;64868;45.710;9.590;2023-04-16T12:33:16;98523.44;;;20.79;30.72
72950;BME280;64868;45.710;9.590;2023-04-16T12:35:47;98525.16;;;20.65;31.71
72950;BME280;64868;45.710;9.590;2023-04-16T12:38:19;98510.44;;;20.95;31.46
72950;BME280;64868;45.710;9.590;2023-04-16T12:40:52;98522.94;;;20.00;32.08
72950;BME280;64868;45.710;9.590;2023-04-16T12:43:25;98501.69;;;19.61;33.05
72950;BME280;64868;45.710;9.590;2023-04-16T12:45:58;98497.81;;;19.79;33.71
72950;BME280;64868;45.710;9.590;2023-04-16T12:48:30;98503.59;;;20.15;33.20
72950;BME280;64868;45.710;9.590;2023-04-16T12:51:03;98483.50;;;21.03;31.96
72950;BME280;64868;45.710;9.590;2023-04-16T12:53:33;98521.59;;;20.34;33.71
72950;BME280;64868;45.710;9.590;2023-04-16T12:56:03;98506.69;;;20.58;32.72
72950;BME280;64868;45.710;9.590;2023-04-16T12:58:33;98498.03;;;21.05;32.32
72950;BME280;64868;45.710;9.590;2023-04-16T13:01:04;98486.47;;;21.02;31.34
72950;BME280;64868;45.710;9.590;2023-04-16T13:03:31;98501.97;;;20.44;32.08
72950;BME280;64868;45.710;9.590;2023-04-16T13:06:02;98494.00;;;21.23;32.22
72950;BME280;64868;45.710;9.590;2023-04-16T13:08:33;98484.13;;;22.07;31.09
72950;BME280;64868;45.710;9.590;2023-04-16T13:11:01;98474.50;;;22.53;29.92
72950;BME280;64868;45.710;9.590;2023-04-16T13:13:31;98501.03;;;23.12;28.99
72950;BME280;64868;45.710;9.590;2023-04-16T13:16:01;98491.81;;;22.27;28.70
72950;BME280;64868;45.710;9.590;2023-04-16T13:18:37;98501.53;;;21.44;30.00
72950;BME280;64868;45.710;9.590;2023-04-16T13:21:09;98491.72;;;21.11;31.06
72950;BME280;64868;45.710;9.590;2023-04-16T13:23:37;98477.00;;;21.41;31.05
72950;BME280;64868;45.710;9.590;2023-04-16T13:26:10;98481.28;;;21.28;31.93
72950;BME280;64868;45.710;9.590;2023-04-16T13:28:41;98477.81;;;22.14;31.48
72950;BME280;64868;45.710;9.590;2023-04-16T13:31:09;98487.94;;;21.85;31.04
72950;BME280;64868;45.710;9.590;2023-04-16T13:33:42;98467.06;;;21.02;32.69
72950;BME280;64868;45.710;9.590;2023-04-16T13:36:15;98463.81;;;20.54;34.37